Time;durP1;ratioP1;P1;durP2;ratioP2;P2;SDS_P1;SDS_P2;PMS_P1;PMS_P2;Temp;Humidity;BMP_temperature;BMP_pressure;BME280_temperature;BME280_humidity;BME280_pressure;Samples;Min_cycle;Max_cycle;Signal;HPM_P1;HPM_P2
2022/06/08 00:02:19;;;;;;;10.77;9.68;;;17.70;99.90;;;;;;7338160;19;107997;-79
2022/06/08 00:04:46;;;;;;;11.25;9.25;;;17.70;99.90;;;;;;7343372;19;108358;-79
2022/06/08 00:07:13;;;;;;;10.23;9.32;;;17.70;99.90;;;;;;7339361;19;107867;-79
2022/06/08 00:09:40;;;;;;;10.27;9.38;;;17.70;99.90;;;;;;7340982;19;107642;-79
2022/06/08 00:12:08;;;;;;;10.30;9.40;;;17.60;99.90;;;;;;7339629;19;108921;-79
2022/06/08 00:14:36;;;;;;;9.52;8.63;;;17.60;99.90;;;;;;7338752;19;107739;-79
2022/06/08 00:17:03;;;;;;;9.65;8.57;;;17.60;99.90;;;;;;7338325;19;108636;-79
2022/06/08 00:19:31;;;;;;;8.77;8.02;;;17.60;99.90;;;;;;7336049;19;108972;-79
2022/06/08 00:21:58;;;;;;;8.27;7.47;;;17.60;99.90;;;;;;7339378;19;107964;-79
2022/06/08 00:24:26;;;;;;;9.13;8.25;;;17.60;99.90;;;;;;7337595;19;111251;-79
2022/06/08 00:26:53;;;;;;;9.10;7.68;;;17.60;99.90;;;;;;7345032;19;109496;-79
2022/06/08 00:29:20;;;;;;;8.88;7.65;;;17.60;99.90;;;;;;7341035;19;108472;-79
2022/06/08 00:31:47;;;;;;;5.97;5.47;;;17.60;99.90;;;;;;7341390;19;112222;-79
2022/06/08 00:34:14;;;;;;;11.27;6.65;;;17.60;99.90;;;;;;7347191;19;108332;-79
2022/06/08 00:36:41;;;;;;;7.65;6.80;;;17.60;99.90;;;;;;7346341;19;108370;-79
2022/06/08 00:39:08;;;;;;;7.47;6.70;;;17.50;99.90;;;;;;7345774;19;109062;-79
2022/06/08 00:41:57;;;;;;;9.60;7.20;;;17.50;99.90;;;;;;7346722;19;107046;-80
2022/06/08 00:44:49;;;;;;;7.00;6.43;;;17.50;99.90;;;;;;7346876;19;110412;-79
2022/06/08 00:47:21;;;;;;;8.55;6.53;;;17.50;99.90;;;;;;7346462;19;109180;-79
2022/06/08 00:49:56;;;;;;;8.60;6.22;;;17.50;99.90;;;;;;7350102;19;108175;-79
2022/06/08 00:52:25;;;;;;;6.68;6.07;;;17.60;99.90;;;;;;7346466;19;108251;-79
2022/06/08 00:54:57;;;;;;;7.18;6.38;;;17.50;99.90;;;;;;7346203;19;108535;-79
2022/06/08 00:57:30;;;;;;;6.55;5.70;;;17.40;99.90;;;;;;7345932;19;108315;-79
2022/06/08 01:00:05;;;;;;;6.80;6.18;;;17.40;99.90;;;;;;7343928;19;112195;-79
2022/06/08 01:02:32;;;;;;;6.03;5.20;;;17.40;99.90;;;;;;7345596;19;111360;-79
2022/06/08 01:05:18;;;;;;;7.47;5.75;;;17.40;99.90;;;;;;7345682;19;108382;-79
2022/06/08 01:07:46;;;;;;;6.38;5.80;;;17.40;99.90;;;;;;7346196;19;108875;-79
2022/06/08 01:10:17;;;;;;;6.20;5.43;;;17.30;99.90;;;;;;7351278;19;108761;-79
2022/06/08 01:12:45;;;;;;;6.65;4.95;;;17.30;99.90;;;;;;7346645;19;108992;-79
2022/06/08 01:15:16;;;;;;;4.75;4.35;;;17.30;99.90;;;;;;7345062;19;108240;-79
2022/06/08 01:17:43;;;;;;;7.25;5.18;;;17.30;99.90;;;;;;7346970;19;111713;-79
2022/06/08 01:20:11;;;;;;;6.32;4.85;;;17.20;99.90;;;;;;7342232;19;109716;-79
2022/06/08 01:22:38;;;;;;;5.63;5.00;;;17.20;99.90;;;;;;7345785;19;107393;-79
2022/06/08 01:25:07;;;;;;;5.50;5.00;;;17.20;99.90;;;;;;7344722;19;108186;-79
2022/06/08 01:27:44;;;;;;;5.45;4.35;;;17.20;99.90;;;;;;7343436;19;108907;-79
2022/06/08 01:30:21;;;;;;;5.35;4.05;;;17.10;99.90;;;;;;7345348;19;109368;-79
2022/06/08 01:33:13;;;;;;;5.45;4.45;;;17.10;99.90;;;;;;7349646;19;108218;-79
2022/06/08 01:35:49;;;;;;;4.32;3.70;;;17.00;99.90;;;;;;7344031;19;109106;-79
2022/06/08 01:38:25;;;;;;;7.32;4.30;;;17.00;99.90;;;;;;7343973;19;108184;-79
2022/06/08 01:41:13;;;;;;;5.10;4.50;;;17.00;99.90;;;;;;7341912;19;110068;-79
2022/06/08 01:43:58;;;;;;;8.43;3.53;;;16.90;99.90;;;;;;7339580;19;108415;-79
2022/06/08 01:46:39;;;;;;;4.43;3.53;;;16.90;99.90;;;;;;7343044;19;109706;-79
2022/06/08 01:49:18;;;;;;;5.30;3.88;;;16.80;99.90;;;;;;7340762;19;112170;-79
2022/06/08 01:51:58;;;;;;;8.07;3.70;;;16.80;99.90;;;;;;7343284;19;108178;-79
2022/06/08 01:54:41;;;;;;;5.57;3.80;;;16.80;99.90;;;;;;7344890;19;108382;-78
2022/06/08 01:57:11;;;;;;;4.00;3.30;;;16.80;99.90;;;;;;7348750;19;109414;-79
2022/06/08 01:59:55;;;;;;;3.50;3.20;;;16.70;99.90;;;;;;7342138;19;108499;-79
2022/06/08 02:02:47;;;;;;;5.20;2.83;;;16.70;99.90;;;;;;7343731;19;108945;-79
2022/06/08 02:05:39;;;;;;;4.10;3.55;;;16.70;99.90;;;;;;7343260;19;111131;-78
2022/06/08 02:08:25;;;;;;;4.68;3.65;;;16.60;99.90;;;;;;7344731;19;109037;-79
2022/06/08 02:10:51;;;;;;;4.20;3.17;;;16.60;99.90;;;;;;7342531;19;109037;-79
2022/06/08 02:13:30;;;;;;;3.85;3.55;;;16.60;99.90;;;;;;7343138;19;107895;-79
2022/06/08 02:16:04;;;;;;;7.57;3.92;;;16.60;99.90;;;;;;7343545;19;108353;-79
2022/06/08 02:18:37;;;;;;;4.50;3.72;;;16.60;99.90;;;;;;7342339;19;109135;-79
2022/06/08 02:21:23;;;;;;;6.00;3.65;;;16.50;99.90;;;;;;7346959;19;108266;-79
2022/06/08 02:23:55;;;;;;;4.82;4.25;;;16.50;99.90;;;;;;7341834;19;107941;-80
2022/06/08 02:26:46;;;;;;;5.75;5.15;;;16.50;99.90;;;;;;7341491;19;109041;-79
2022/06/08 02:29:22;;;;;;;9.85;6.95;;;16.50;99.90;;;;;;7343415;19;108409;-80
2022/06/08 02:31:57;;;;;;;13.95;8.35;;;16.40;99.90;;;;;;7343510;19;108855;-79
2022/06/08 02:34:37;;;;;;;10.65;7.53;;;16.30;99.90;;;;;;7342139;19;108247;-79
2022/06/08 02:37:17;;;;;;;8.10;6.70;;;16.30;99.90;;;;;;7340500;19;107571;-79
2022/06/08 02:39:59;;;;;;;10.95;6.70;;;16.30;99.90;;;;;;7341755;19;110709;-79
2022/06/08 02:42:33;;;;;;;11.95;6.63;;;16.30;99.90;;;;;;7343459;19;107758;-79
2022/06/08 02:45:11;;;;;;;9.32;7.10;;;16.30;99.90;;;;;;7348185;19;108410;-79
2022/06/08 02:47:39;;;;;;;8.88;6.53;;;16.30;99.90;;;;;;7342146;19;108297;-79
2022/06/08 02:50:11;;;;;;;11.07;6.45;;;16.30;99.90;;;;;;7339517;19;108535;-79
2022/06/08 02:52:45;;;;;;;10.35;6.50;;;16.30;99.90;;;;;;7340423;19;109156;-78
2022/06/08 02:55:28;;;;;;;7.40;5.70;;;16.30;99.90;;;;;;7341755;19;111196;-78
2022/06/08 02:58:02;;;;;;;5.47;4.88;;;16.30;99.90;;;;;;7342457;19;108286;-78
2022/06/08 03:00:36;;;;;;;7.55;4.93;;;16.40;99.90;;;;;;7340141;19;108892;-78
2022/06/08 03:03:10;;;;;;;7.38;4.65;;;16.30;99.90;;;;;;7342315;19;108642;-78
2022/06/08 03:05:42;;;;;;;8.63;5.05;;;16.30;99.90;;;;;;7340045;19;108299;-79
2022/06/08 03:08:35;;;;;;;5.53;4.88;;;16.20;99.90;;;;;;7347318;19;110027;-78
2022/06/08 03:11:04;;;;;;;7.50;4.30;;;16.20;99.90;;;;;;7342148;19;108495;-78
2022/06/08 03:13:39;;;;;;;9.93;4.50;;;16.10;99.90;;;;;;7341170;19;112212;-78
2022/06/08 03:16:09;;;;;;;7.25;4.18;;;16.10;99.90;;;;;;7342786;19;107972;-77
2022/06/08 03:18:36;;;;;;;5.10;3.80;;;16.20;99.90;;;;;;7338915;19;109039;-78
2022/06/08 03:21:04;;;;;;;4.03;3.72;;;16.20;99.90;;;;;;7340059;19;109356;-78
2022/06/08 03:23:32;;;;;;;5.45;3.63;;;16.20;99.90;;;;;;7342450;19;107935;-78
2022/06/08 03:25:59;;;;;;;4.95;3.55;;;16.30;99.90;;;;;;7340894;19;108357;-79
2022/06/08 03:28:26;;;;;;;5.95;3.70;;;16.30;99.90;;;;;;7344604;19;109497;-78
2022/06/08 03:30:54;;;;;;;7.57;3.60;;;16.30;99.90;;;;;;7341119;19;108153;-78
2022/06/08 03:33:21;;;;;;;8.23;3.30;;;16.30;99.90;;;;;;7339949;19;109047;-77
2022/06/08 03:35:48;;;;;;;6.78;3.40;;;16.30;99.90;;;;;;7341895;19;108574;-78
2022/06/08 03:38:15;;;;;;;5.00;3.60;;;16.30;99.90;;;;;;7340510;19;108614;-78
2022/06/08 03:40:42;;;;;;;10.18;3.67;;;16.30;99.90;;;;;;7339940;19;109084;-78
2022/06/08 03:43:10;;;;;;;4.43;3.60;;;16.20;99.90;;;;;;7341019;19;107962;-79
2022/06/08 03:45:47;;;;;;;5.18;3.40;;;16.20;99.90;;;;;;7339624;19;109143;-78
2022/06/08 03:48:16;;;;;;;5.28;3.38;;;16.20;99.90;;;;;;7341198;19;109223;-79
2022/06/08 03:50:45;;;;;;;8.82;3.47;;;16.10;99.90;;;;;;7342069;19;109083;-78
2022/06/08 03:53:21;;;;;;;5.13;3.35;;;16.10;99.90;;;;;;7340366;19;108910;-78
2022/06/08 03:55:50;;;;;;;8.70;3.40;;;16.10;99.90;;;;;;7339702;19;107929;-78
2022/06/08 03:58:19;;;;;;;4.63;3.20;;;16.00;99.90;;;;;;7341073;19;108232;-81
2022/06/08 04:00:47;;;;;;;7.20;2.72;;;16.10;99.90;;;;;;7338813;19;108974;-81
2022/06/08 04:03:14;;;;;;;4.13;2.50;;;16.10;99.90;;;;;;7341758;19;108207;-81
2022/06/08 04:05:42;;;;;;;9.55;3.17;;;16.20;99.90;;;;;;7340098;19;108256;-81
2022/06/08 04:08:09;;;;;;;6.97;3.17;;;16.20;99.90;;;;;;7346222;19;109019;-80
2022/06/08 04:10:36;;;;;;;4.80;2.60;;;16.20;99.90;;;;;;7347082;19;111474;-81
2022/06/08 04:13:04;;;;;;;4.43;3.03;;;16.20;99.90;;;;;;7352755;19;108474;-81
2022/06/08 04:15:43;;;;;;;3.22;2.67;;;16.30;99.90;;;;;;7347755;19;107943;-82
2022/06/08 04:18:17;;;;;;;3.75;2.53;;;16.30;99.90;;;;;;7346281;19;108650;-81
2022/06/08 04:20:46;;;;;;;4.53;2.47;;;16.30;99.90;;;;;;7346285;19;108392;-81
2022/06/08 04:23:14;;;;;;;5.38;2.72;;;16.20;99.90;;;;;;7347554;19;107962;-82
2022/06/08 04:25:42;;;;;;;4.55;2.25;;;16.20;99.90;;;;;;7347570;19;108213;-80
2022/06/08 04:28:10;;;;;;;3.35;2.63;;;16.30;99.90;;;;;;7347548;19;108816;-82
2022/06/08 04:30:37;;;;;;;2.80;2.30;;;16.30;99.90;;;;;;7346226;19;108092;-80
2022/06/08 04:33:04;;;;;;;3.13;2.50;;;16.30;99.90;;;;;;7347567;19;110135;-81
2022/06/08 04:35:32;;;;;;;6.03;2.33;;;16.30;99.90;;;;;;7353143;19;109595;-81
2022/06/08 04:38:00;;;;;;;7.40;2.55;;;16.30;99.90;;;;;;7345385;19;108514;-81
2022/06/08 04:40:28;;;;;;;3.08;2.38;;;16.40;99.90;;;;;;7344510;19;109050;-81
2022/06/08 04:42:55;;;;;;;5.93;2.67;;;16.40;99.90;;;;;;7347041;19;108274;-80
2022/06/08 04:45:22;;;;;;;3.58;2.08;;;16.40;99.90;;;;;;7345236;19;108554;-80
2022/06/08 04:47:49;;;;;;;3.85;1.98;;;16.40;99.90;;;;;;7346632;19;108934;-80
2022/06/08 04:50:17;;;;;;;4.95;2.85;;;16.40;99.90;;;;;;7343493;19;107936;-81
2022/06/08 04:52:44;;;;;;;4.05;1.83;;;16.50;99.90;;;;;;7346359;19;108268;-81
2022/06/08 04:55:13;;;;;;;3.45;2.05;;;16.50;99.90;;;;;;7346503;19;109280;-80
2022/06/08 04:57:40;;;;;;;2.42;1.80;;;16.60;99.90;;;;;;7352263;19;108176;-81
2022/06/08 05:00:12;;;;;;;3.03;1.70;;;16.60;99.90;;;;;;7344079;19;107920;-81
2022/06/08 05:02:48;;;;;;;5.85;1.90;;;16.60;99.90;;;;;;7346475;19;107837;-81
2022/06/08 05:05:22;;;;;;;3.75;2.00;;;16.70;99.90;;;;;;7346507;19;108692;-80
2022/06/08 05:07:50;;;;;;;3.47;1.92;;;16.80;99.90;;;;;;7345757;19;109812;-81
2022/06/08 05:10:18;;;;;;;4.03;2.03;;;16.80;99.90;;;;;;7343925;19;108312;-80
2022/06/08 05:12:45;;;;;;;9.23;2.22;;;16.80;99.90;;;;;;7346852;19;108997;-81
2022/06/08 05:15:16;;;;;;;6.60;2.13;;;16.80;99.90;;;;;;7345317;19;108794;-80
2022/06/08 05:17:44;;;;;;;4.60;2.00;;;16.90;99.90;;;;;;7344666;19;108355;-81
2022/06/08 05:20:13;;;;;;;4.28;1.80;;;16.90;99.90;;;;;;7347229;19;107673;-80
2022/06/08 05:22:40;;;;;;;4.60;2.13;;;17.00;99.90;;;;;;7345480;19;110685;-83
2022/06/08 05:25:11;;;;;;;4.57;1.75;;;17.00;99.90;;;;;;7343571;19;108047;-80
2022/06/08 05:27:38;;;;;;;4.78;1.67;;;17.10;99.90;;;;;;7345833;19;108487;-79
2022/06/08 05:30:09;;;;;;;5.32;1.80;;;17.10;99.90;;;;;;7342891;19;108249;-80
2022/06/08 05:32:37;;;;;;;3.13;1.70;;;17.20;99.90;;;;;;7344980;19;108285;-81
2022/06/08 05:35:05;;;;;;;5.00;1.83;;;17.20;99.90;;;;;;7344448;19;108922;-81
2022/06/08 05:37:33;;;;;;;4.47;1.63;;;17.30;99.90;;;;;;7344397;19;108268;-81
2022/06/08 05:40:01;;;;;;;3.75;1.90;;;17.30;99.90;;;;;;7350012;19;108728;-81
2022/06/08 05:42:28;;;;;;;3.95;1.88;;;17.30;99.90;;;;;;7345427;19;107926;-81
2022/06/08 05:45:01;;;;;;;3.47;1.80;;;17.40;99.90;;;;;;7342666;19;108628;-80
2022/06/08 05:47:28;;;;;;;4.53;1.60;;;17.40;99.90;;;;;;7342365;19;107858;-80
2022/06/08 05:49:55;;;;;;;5.68;2.00;;;17.50;99.90;;;;;;7343840;19;111475;-80
2022/06/08 05:52:22;;;;;;;4.47;2.00;;;17.50;99.90;;;;;;7345442;19;110783;-80
2022/06/08 05:54:49;;;;;;;11.13;2.13;;;17.50;99.90;;;;;;7346207;19;109643;-81
2022/06/08 05:57:16;;;;;;;3.97;2.10;;;17.50;99.90;;;;;;7344340;19;111270;-81
2022/06/08 05:59:44;;;;;;;3.30;1.92;;;17.60;99.90;;;;;;7345364;19;108797;-81
2022/06/08 06:02:14;;;;;;;3.10;1.58;;;17.60;99.90;;;;;;7348083;19;109227;-81
2022/06/08 06:04:42;;;;;;;5.80;1.70;;;17.70;99.90;;;;;;7345228;19;108132;-81
2022/06/08 06:07:11;;;;;;;6.50;2.05;;;17.70;99.90;;;;;;7344414;19;108934;-80
2022/06/08 06:09:40;;;;;;;6.10;2.13;;;17.80;99.90;;;;;;7344592;19;108178;-80
2022/06/08 06:12:08;;;;;;;4.88;1.85;;;17.80;99.90;;;;;;7345309;19;108245;-80
2022/06/08 06:14:36;;;;;;;5.25;1.60;;;17.90;99.90;;;;;;7342863;19;109213;-81
2022/06/08 06:17:04;;;;;;;7.30;1.98;;;18.00;99.90;;;;;;7342961;19;108502;-81
2022/06/08 06:19:31;;;;;;;5.38;1.60;;;18.00;99.90;;;;;;7342553;19;108719;-79
2022/06/08 06:21:58;;;;;;;4.18;1.60;;;18.10;99.90;;;;;;7340612;19;109118;-80
2022/06/08 06:24:25;;;;;;;6.72;2.13;;;18.20;99.90;;;;;;7348336;19;108458;-81
2022/06/08 06:26:53;;;;;;;4.88;2.00;;;18.30;99.90;;;;;;7342758;19;109100;-81
2022/06/08 06:29:20;;;;;;;4.05;1.80;;;18.40;99.90;;;;;;7343221;19;107930;-81
2022/06/08 06:31:51;;;;;;;3.13;1.95;;;18.50;99.90;;;;;;7344459;19;108525;-83
2022/06/08 06:34:22;;;;;;;4.85;2.08;;;18.50;99.90;;;;;;7342499;19;108952;-83
2022/06/08 06:36:53;;;;;;;5.63;1.63;;;18.60;99.90;;;;;;7344010;19;107821;-83
2022/06/08 06:39:26;;;;;;;3.95;1.60;;;18.60;99.90;;;;;;7342190;19;108120;-83
2022/06/08 06:41:55;;;;;;;5.78;1.70;;;18.70;99.90;;;;;;7341901;19;109115;-83
2022/06/08 06:44:24;;;;;;;10.15;1.98;;;18.80;99.90;;;;;;7344376;19;107984;-83
2022/06/08 06:46:51;;;;;;;4.72;1.80;;;18.80;99.90;;;;;;7349831;19;110788;-83
2022/06/08 06:49:19;;;;;;;4.93;1.98;;;18.90;99.90;;;;;;7343031;19;108434;-84
2022/06/08 06:51:46;;;;;;;7.65;1.60;;;19.00;99.90;;;;;;7344130;19;107158;-83
2022/06/08 06:54:13;;;;;;;4.88;1.98;;;19.00;99.90;;;;;;7342965;19;107902;-83
2022/06/08 06:56:40;;;;;;;6.45;1.70;;;19.00;99.90;;;;;;7343585;19;108113;-84
2022/06/08 06:59:07;;;;;;;5.22;1.70;;;19.10;99.90;;;;;;7340128;19;108621;-82
2022/06/08 07:01:34;;;;;;;5.90;1.85;;;19.10;99.90;;;;;;7340702;19;109270;-84
2022/06/08 07:04:02;;;;;;;8.32;1.73;;;19.20;99.90;;;;;;7344095;19;108276;-83
2022/06/08 07:06:29;;;;;;;10.20;2.05;;;19.20;99.90;;;;;;7344361;19;109008;-83
2022/06/08 07:08:59;;;;;;;5.50;1.92;;;19.20;99.90;;;;;;7348527;19;108019;-83
2022/06/08 07:11:35;;;;;;;7.70;2.00;;;19.30;99.90;;;;;;7341823;19;108178;-84
2022/06/08 07:14:04;;;;;;;8.77;2.15;;;19.30;99.90;;;;;;7343229;19;109196;-84
2022/06/08 07:16:32;;;;;;;9.20;2.10;;;19.30;99.90;;;;;;7343689;19;108284;-82
2022/06/08 07:19:00;;;;;;;5.60;1.75;;;19.30;99.90;;;;;;7344624;19;107103;-83
2022/06/08 07:21:28;;;;;;;5.50;1.77;;;19.40;99.90;;;;;;7340397;19;109051;-83
2022/06/08 07:23:55;;;;;;;8.55;1.90;;;19.40;99.90;;;;;;7341732;19;109095;-83
2022/06/08 07:26:28;;;;;;;7.70;2.28;;;19.40;99.90;;;;;;7340913;19;108270;-83
2022/06/08 07:28:56;;;;;;;6.68;1.77;;;19.40;99.90;;;;;;7341996;19;108131;-83
2022/06/08 07:31:24;;;;;;;6.05;1.80;;;19.40;99.90;;;;;;7347087;19;107111;-83
2022/06/08 07:33:52;;;;;;;8.57;2.47;;;19.40;99.90;;;;;;7342733;19;109046;-83
2022/06/08 07:36:20;;;;;;;7.40;2.08;;;19.40;99.90;;;;;;7341677;19;108290;-83
2022/06/08 07:38:47;;;;;;;8.95;1.83;;;19.50;99.90;;;;;;7342195;19;108469;-83
2022/06/08 07:41:15;;;;;;;8.75;1.83;;;19.50;99.90;;;;;;7341842;19;109137;-82
2022/06/08 07:43:42;;;;;;;9.77;2.15;;;19.50;99.90;;;;;;7347262;19;107527;-83
2022/06/08 07:46:10;;;;;;;7.32;1.98;;;19.50;99.90;;;;;;7348589;19;109597;-83
2022/06/08 07:51:23;;;;;;;7.53;2.30;;;19.50;99.90;;;;;;7353104;19;108043;-83
2022/06/08 07:53:50;;;;;;;7.22;2.25;;;19.50;99.90;;;;;;7346218;19;108390;-83
2022/06/08 07:56:18;;;;;;;10.15;1.95;;;19.50;99.90;;;;;;7342585;19;111095;-83
2022/06/08 07:58:45;;;;;;;7.45;2.10;;;19.40;99.90;;;;;;7343463;19;108860;-82
2022/06/08 08:01:12;;;;;;;5.60;1.63;;;19.50;99.90;;;;;;7347030;19;109452;-83
2022/06/08 08:03:39;;;;;;;10.32;1.80;;;19.40;99.90;;;;;;7347734;19;108213;-82
2022/06/08 08:06:07;;;;;;;9.57;2.10;;;19.40;99.90;;;;;;7349146;19;107957;-83
2022/06/08 08:08:34;;;;;;;6.07;1.90;;;19.40;99.90;;;;;;7348060;19;108986;-83
2022/06/08 08:11:01;;;;;;;4.93;3.70;;;19.40;99.90;;;;;;7346998;19;107130;-83
2022/06/08 08:13:28;;;;;;;9.35;2.38;;;19.40;99.90;;;;;;7352175;19;108221;-83
2022/06/08 08:15:55;;;;;;;8.23;1.88;;;19.40;99.90;;;;;;7347470;19;107536;-84
2022/06/08 08:18:22;;;;;;;6.88;1.65;;;19.40;99.90;;;;;;7343355;19;108183;-83
2022/06/08 08:20:49;;;;;;;6.78;1.83;;;19.30;99.90;;;;;;7346584;19;109165;-83
2022/06/08 08:23:17;;;;;;;6.95;1.90;;;19.30;99.90;;;;;;7346033;19;107908;-83
2022/06/08 08:25:44;;;;;;;8.13;1.60;;;19.30;99.90;;;;;;7345538;19;107562;-82
2022/06/08 08:28:11;;;;;;;8.55;1.95;;;19.30;99.90;;;;;;7345600;19;108218;-83
2022/06/08 08:30:38;;;;;;;11.88;1.98;;;19.30;99.90;;;;;;7345351;19;108268;-83
2022/06/08 08:33:05;;;;;;;6.75;1.70;;;19.30;99.90;;;;;;7346898;19;111388;-83
2022/06/08 08:35:32;;;;;;;10.85;2.20;;;19.30;99.90;;;;;;7352978;19;109262;-83
2022/06/08 08:38:00;;;;;;;5.93;1.90;;;19.30;99.90;;;;;;7345104;19;108237;-83
2022/06/08 08:40:44;;;;;;;0.05;0.05;;;19.30;99.90;;;;;;7346564;19;109032;-82
2022/06/08 08:43:20;;;;;;;0.00;0.00;;;19.20;99.90;;;;;;7343533;19;107279;-83
2022/06/08 08:45:50;;;;;;;0.00;0.00;;;19.20;99.90;;;;;;7346865;19;108242;-83
2022/06/08 08:48:42;;;;;;;0.00;0.00;;;19.20;99.90;;;;;;7346202;19;108669;-83
2022/06/08 08:51:26;;;;;;;0.00;0.00;;;19.20;99.90;;;;;;7346963;19;108329;-82
2022/06/08 08:53:54;;;;;;;0.00;0.00;;;19.10;99.90;;;;;;7342636;19;107850;-82
2022/06/08 08:56:37;;;;;;;0.00;0.00;;;19.10;99.90;;;;;;7345529;19;107897;-83
2022/06/08 08:59:18;;;;;;;0.00;0.00;;;19.20;99.90;;;;;;7350667;19;108365;-83
2022/06/08 09:01:49;;;;;;;0.00;0.00;;;19.10;99.90;;;;;;7344179;19;109145;-83
2022/06/08 09:04:22;;;;;;;0.10;0.10;;;19.10;99.90;;;;;;7345698;19;107271;-82
2022/06/08 09:06:50;;;;;;;0.10;0.10;;;19.10;99.90;;;;;;7345855;19;108597;-82
2022/06/08 09:09:23;;;;;;;0.00;0.00;;;19.10;99.90;;;;;;7346475;19;108415;-81
2022/06/08 09:11:50;;;;;;;0.00;0.00;;;19.10;99.90;;;;;;7346672;19;108395;-82
2022/06/08 09:14:51;;;;;;;1.02;0.45;;;19.10;99.90;;;;;;7346193;19;110117;-81
2022/06/08 09:17:27;;;;;;;1.25;0.30;;;19.10;99.90;;;;;;7344953;19;109250;-81
2022/06/08 09:19:54;;;;;;;0.60;0.40;;;19.10;99.90;;;;;;7344440;19;108846;-84
2022/06/08 09:22:25;;;;;;;2.08;0.43;;;19.10;99.90;;;;;;7349305;19;108197;-84
2022/06/08 09:25:03;;;;;;;1.45;0.50;;;19.10;99.90;;;;;;7346029;19;107947;-86
2022/06/08 09:27:38;;;;;;;0.65;0.22;;;19.10;99.90;;;;;;7343236;19;107398;-84
2022/06/08 09:30:15;;;;;;;0.73;0.30;;;19.10;99.90;;;;;;7344659;19;108894;-83
2022/06/08 09:32:49;;;;;;;0.45;0.20;;;19.00;99.90;;;;;;7346024;19;107865;-85
2022/06/08 09:35:33;;;;;;;0.55;0.22;;;19.10;99.90;;;;;;7340823;19;108163;-86
2022/06/08 09:38:06;;;;;;;0.93;0.30;;;19.10;99.90;;;;;;7341434;19;109664;-84
2022/06/08 09:40:42;;;;;;;0.85;0.20;;;19.00;99.90;;;;;;7342602;19;108009;-84
2022/06/08 09:43:18;;;;;;;0.52;0.30;;;19.10;99.90;;;;;;7348612;19;108723;-84
2022/06/08 09:46:02;;;;;;;8.07;6.13;;;19.00;99.90;;;;;;7343267;19;107909;-84
2022/06/08 09:51:53;;;;;;;184.88;61.25;;;18.90;99.90;;;;;;7344526;19;109410;-84
2022/06/08 09:54:33;;;;;;;29.05;8.68;;;18.90;99.90;;;;;;7337791;19;111069;-84
2022/06/08 09:57:15;;;;;;;10.55;1.85;;;18.90;99.90;;;;;;7344680;19;108917;-84
2022/06/08 10:00:11;;;;;;;7.10;1.90;;;18.90;99.90;;;;;;7345049;19;109082;-85
2022/06/08 10:02:54;;;;;;;5.50;2.03;;;18.90;99.90;;;;;;7343350;19;108031;-84
2022/06/08 10:05:42;;;;;;;4.82;1.60;;;18.90;99.90;;;;;;7339278;19;108114;-84
2022/06/08 10:08:19;;;;;;;8.02;1.90;;;18.90;99.90;;;;;;7346514;19;107672;-84
2022/06/08 10:11:34;;;;;;;6.07;2.00;;;18.80;99.90;;;;;;7340992;19;111031;-84
2022/06/08 10:13:58;;;;;;;4.45;1.80;;;18.80;99.90;;;;;;7341785;19;112732;-85
2022/06/08 10:16:31;;;;;;;4.88;1.52;;;18.70;99.90;;;;;;7344044;19;108410;-85
2022/06/08 10:19:05;;;;;;;4.43;1.33;;;18.60;99.90;;;;;;7343263;19;108106;-85
2022/06/08 10:21:38;;;;;;;8.48;1.40;;;18.60;99.90;;;;;;7341716;19;109075;-86
2022/06/08 10:24:11;;;;;;;4.15;1.20;;;18.50;99.90;;;;;;7342015;19;107793;-84
2022/06/08 10:26:52;;;;;;;5.82;1.55;;;18.50;99.90;;;;;;7343833;19;108829;-87
2022/06/08 10:29:40;;;;;;;4.97;1.20;;;18.50;99.90;;;;;;7343580;19;109448;-84
2022/06/08 10:32:38;;;;;;;3.92;1.30;;;18.50;99.90;;;;;;7348397;19;107301;-85
2022/06/08 10:35:31;;;;;;;5.65;1.30;;;18.50;99.90;;;;;;7340144;19;112264;-84
2022/06/08 10:37:59;;;;;;;54.13;28.83;;;18.40;99.90;;;;;;7344427;19;107401;-84
2022/06/08 10:40:36;;;;;;;6.15;1.45;;;18.40;99.90;;;;;;7339826;19;114840;-84
2022/06/08 10:43:04;;;;;;;;;;;18.40;99.90;;;;;;7343289;19;108951;-86
2022/06/08 10:45:45;;;;;;;3.50;0.70;;;18.30;99.90;;;;;;7346395;19;108220;-86
2022/06/08 10:48:15;;;;;;;726.60;96.20;;;18.30;99.90;;;;;;7341836;19;108296;-86
2022/06/08 10:50:47;;;;;;;5.50;1.50;;;18.20;99.90;;;;;;7337443;19;112024;-85
2022/06/08 10:56:35;;;;;;;6.78;1.60;;;18.20;99.90;;;;;;7346502;19;112828;-85
2022/06/08 10:59:13;;;;;;;4.53;1.55;;;18.30;99.90;;;;;;7342794;19;107863;-85
2022/06/08 11:01:59;;;;;;;4.50;1.95;;;18.20;99.90;;;;;;7342211;19;108277;-85
2022/06/08 11:04:32;;;;;;;7.10;1.70;;;18.30;99.90;;;;;;7341685;19;109177;-85
2022/06/08 11:07:05;;;;;;;4.43;1.40;;;18.20;99.90;;;;;;7341820;19;108212;-85
2022/06/08 11:09:32;;;;;;;9.98;1.70;;;18.30;99.90;;;;;;7342488;19;107132;-86
2022/06/08 11:12:12;;;;;;;4.50;1.80;;;18.20;99.90;;;;;;7343241;19;109503;-84
2022/06/08 11:14:48;;;;;;;6.93;2.15;;;18.20;99.90;;;;;;7340170;19;107466;-84
2022/06/08 11:17:15;;;;;;;4.53;2.22;;;18.10;99.90;;;;;;7342389;19;108457;-83
2022/06/08 11:19:43;;;;;;;5.53;2.10;;;18.00;99.90;;;;;;7348378;19;109319;-84
2022/06/08 11:22:21;;;;;;;6.45;1.90;;;18.00;99.90;;;;;;7342163;19;108334;-83
2022/06/08 11:24:54;;;;;;;6.03;2.25;;;18.00;99.90;;;;;;7340817;19;111993;-84
2022/06/08 11:27:30;;;;;;;8.25;2.13;;;18.00;99.90;;;;;;7342270;19;107641;-83
2022/06/08 11:30:26;;;;;;;4.75;2.00;;;18.00;99.90;;;;;;7341002;19;108163;-83
2022/06/08 11:32:53;;;;;;;6.97;1.80;;;17.90;99.90;;;;;;7341604;19;107762;-83
2022/06/08 11:35:40;;;;;;;5.70;2.20;;;18.00;99.90;;;;;;7340715;19;108201;-85
2022/06/08 11:38:18;;;;;;;5.65;2.10;;;18.10;99.90;;;;;;7339749;19;108173;-82
2022/06/08 11:40:46;;;;;;;6.93;2.33;;;18.10;99.90;;;;;;7342354;19;109185;-81
2022/06/08 11:43:13;;;;;;;5.47;2.25;;;18.00;99.90;;;;;;7345317;19;108861;-82
2022/06/08 11:45:47;;;;;;;6.50;2.53;;;18.00;99.90;;;;;;7342721;19;108845;-82
2022/06/08 11:48:18;;;;;;;5.63;2.47;;;18.10;99.90;;;;;;7340859;19;107205;-82
2022/06/08 11:51:26;;;;;;;4.47;2.20;;;18.20;99.90;;;;;;7339739;19;109045;-82
2022/06/08 11:53:53;;;;;;;4.97;2.17;;;18.20;99.90;;;;;;7339529;19;108947;-82
2022/06/08 11:56:29;;;;;;;7.22;2.25;;;18.30;99.90;;;;;;7342213;19;107973;-81
2022/06/08 11:59:00;;;;;;;6.00;2.10;;;18.30;99.90;;;;;;7341640;19;108265;-82
2022/06/08 12:01:46;;;;;;;5.32;1.70;;;18.30;99.90;;;;;;7342773;19;109441;-82
2022/06/08 12:04:17;;;;;;;5.60;2.00;;;18.30;99.90;;;;;;7343283;19;107986;-82
2022/06/08 12:06:45;;;;;;;5.65;1.80;;;18.40;99.90;;;;;;7341450;19;108835;-82
2022/06/08 12:09:12;;;;;;;4.43;1.83;;;18.40;99.90;;;;;;7341286;19;108214;-82
2022/06/08 12:11:45;;;;;;;6.18;2.38;;;18.40;99.90;;;;;;7340746;19;108216;-81
2022/06/08 12:14:16;;;;;;;2.92;1.60;;;18.40;99.90;;;;;;7340281;19;109047;-81
2022/06/08 12:16:59;;;;;;;2.72;1.55;;;18.50;99.90;;;;;;7341687;19;109087;-82
2022/06/08 12:19:49;;;;;;;2.90;1.52;;;18.50;99.90;;;;;;7340617;19;108229;-82
2022/06/08 12:22:26;;;;;;;8.98;1.80;;;18.50;99.90;;;;;;7338617;19;108853;-82
2022/06/08 12:25:24;;;;;;;6.40;1.60;;;18.40;99.90;;;;;;7338754;19;108782;-81
2022/06/08 12:28:00;;;;;;;4.50;1.63;;;18.40;99.90;;;;;;7347665;19;108163;-82
2022/06/08 12:30:31;;;;;;;2.83;1.35;;;18.40;99.90;;;;;;7347840;19;108266;-81
2022/06/08 12:33:18;;;;;;;3.55;1.30;;;18.40;99.90;;;;;;7348344;19;108360;-81
2022/06/08 12:36:09;;;;;;;3.53;1.00;;;18.50;99.90;;;;;;7348036;19;109075;-81
2022/06/08 12:39:04;;;;;;;3.90;1.00;;;18.50;99.90;;;;;;7347664;19;108281;-81
2022/06/08 12:41:42;;;;;;;3.50;1.58;;;18.50;99.90;;;;;;7347628;19;108656;-82
2022/06/08 12:44:18;;;;;;;1.60;0.90;;;18.50;99.90;;;;;;7344897;19;109113;-82
2022/06/08 12:47:00;;;;;;;1.90;1.00;;;18.50;99.90;;;;;;7348199;19;108117;-81
2022/06/08 12:49:40;;;;;;;2.08;0.90;;;18.50;99.90;;;;;;7346205;19;107918;-82
2022/06/08 12:52:23;;;;;;;1.63;0.80;;;18.60;99.90;;;;;;7351421;19;108940;-81
2022/06/08 12:54:50;;;;;;;734.80;38.55;;;18.50;99.90;;;;;;7346481;19;108346;-81
2022/06/08 12:57:23;;;;;;;20.05;1.02;;;18.60;99.90;;;;;;7343995;19;110634;-81
2022/06/08 12:59:53;;;;;;;7.32;1.00;;;18.60;99.90;;;;;;7347146;19;111420;-82
2022/06/08 13:02:26;;;;;;;3.80;0.98;;;18.60;99.90;;;;;;7346767;19;108275;-81
2022/06/08 13:04:55;;;;;;;1.70;0.80;;;18.60;99.90;;;;;;7346917;19;111140;-81
2022/06/08 13:07:32;;;;;;;4.78;1.40;;;18.60;99.90;;;;;;7348258;19;109019;-81
2022/06/08 13:10:01;;;;;;;1.30;0.90;;;18.70;99.90;;;;;;7346904;19;107970;-81
2022/06/08 13:12:34;;;;;;;1.90;1.10;;;18.70;99.90;;;;;;7345857;19;109131;-81
2022/06/08 13:15:03;;;;;;;3.28;0.90;;;18.80;99.90;;;;;;7350939;19;107911;-81